Patos de Minas, Brazil
Current Conditions -  °F | °C
As of 1:00 AM on Sunday 21 Dec 2014 (Local Time) from SBUL Reporting Station
Broken Clouds Broken Clouds  
Wind Chill: 70°   Ceiling: 10000
Heat Index: 70°   Visibility: 6mi
Dew Point: 64°   Wind: 1mph
Humidity: 83%   Direction: 360°N
Pressure: 30.03"   Gusts: NA
Location:  18.58°S, 46.52°W
Report Text: SBUL 210300Z 36001KT 9999 SCT013 BKN100 21/18 Q1017
Loading
Personal Weather Stations






























Interactive Weather Map New forecast layout! Learn more

10-Day Weather Forecast

Advertisements
Track Severe Weather on mobile